Tiempo atmosférico en la estación meteorológica de Piornal, Cáceres (1175 m.)



Fecha
DESCASC
Temp. máxima en grados centígrados (hora)
DESCASC
Temp. mínima en grados centígrados (hora)
DESCASC
Temp. media en grados centígrados
DESCASC
Racha de viento máxima en m/sg (hora)
DESCASC
Velocidad máxima media en intervalos de 10 minutos(hora)
DESCASC
Precipitaciones diarias en mm
DESCASC
Precipitaciones de 00:00 a 06:00 en mm
DESCASC
Precipitaciones de 06:00 a 12:00 en mm
DESCASC
Precipitaciones de 12:00 a 18:00 en mm
DESCASC
Precipitaciones de 18:00 a 24:00 en mm
DESCASC
22-04-2019 13.1 (16:40) 3.4 (07:50) 8.3 7.5 (16:20) 3.61 (16:20) 0 0 0 0 0
21-04-2019 11.6 (16:10) 3.7 (08:00) 7.7 12.5 (01:00) 5.56 (00:20) 0 0 0 0 0
20-04-2019 16.2 (16:20) 5.3 (00:00) 10.8 9.72 (01:00) 5.56 (23:50) 0.6 0.6 0 0 0
19-04-2019 8.7 (14:40) 3.5 (02:30) 6.1 9.44 (13:20) 5 (13:20) 2.6 0.4 0 1.6 0.6
18-04-2019 9.2 (16:00) 3.9 (00:00) 6.5 11.39 (00:10) 4.72 (00:10) 30.6 7.6 1 14.4 7.6
17-04-2019 12.6 (16:00) 5.5 (00:00) 9.1 15 (07:40) 8.33 (07:40) 8.4 0 0 0 8.4
16-04-2019 13.6 (16:00) 3.8 (00:00) 8.7 11.11 (17:50) 5.83 (15:50) 0 0 0 0 0
15-04-2019 14.2 (15:50) 6.3 (00:00) 10.3 10.83 (16:20) 6.39 (16:50) 0.8 0 0 0.6 0.2
14-04-2019 18 (13:20) 8 (00:00) 13 6.67 (18:20) 3.61 (18:20) 0 0 0 0 0
13-04-2019 16.4 (17:10) 4.9 (00:00) 10.6 7.5 (19:10) 3.89 (18:40) 0 0 0 0 0
12-04-2019 15.5 (17:10) 2.5 (00:00) 9 8.61 (17:50) 4.72 (18:50) 0 0 0 0 0
11-04-2019 11.3 (18:20) 1.6 (00:00) 6.5 7.78 (17:30) 4.44 (02:30) 0.2 0 0.2 0 0
10-04-2019 9.3 (18:50) 1.7 (00:00) 5.5 13.61 (21:30) 8.61 (21:40) 0.4 0 0 0 0.4
09-04-2019 6.5 (18:40) 0.9 (00:00) 3.7 13.06 (11:20) 5.83 (04:50) 10.8 0.2 7.6 2.6 0.4
08-04-2019 9.4 (17:20) 3.5 (00:00) 6.4 11.67 (19:00) 5.83 (19:00) 17.2 15.2 1.2 0.2 0.6
07-04-2019 5.5 (22:20) 0.1 (00:00) 2.8 11.11 (05:20) 6.39 (02:40) 9.2 2 1.8 1.4 4
06-04-2019 2.5 (17:00) -1.1 (-00:0) 0.7 12.5 (17:50) 5.83 (13:30) 7.8 0 0.2 6.8 0.8
05-04-2019 2.8 (17:30) -0.7 (-00:0) 1 11.11 (19:00) 5.83 (19:00) 20 0.2 6 12.2 1.6
04-04-2019 9.9 (16:40) -2 (-00:0) 3.9 13.89 (02:10) 6.39 (02:10) 1.2 0 0 0 1.2
03-04-2019 11.6 (12:20) 1.6 (00:00) 6.6 18.61 (17:40) 11.39 (16:40) 0 0 0 0 0
02-04-2019 15.1 (15:10) 4.7 (00:00) 9.9 8.89 (17:30) 5 (18:30) 0 0 0 0 0
01-04-2019 10.9 (16:30) 4 (00:00) 7.4 8.89 (00:10) 5 (00:10) 0 0 0 0 0
31-03-2019 12.2 (14:40) 4.8 (00:00) 8.5 10.56 (09:20) 5.56 (09:20) 0.4 0 0 0.4 0
30-03-2019 12.2 (15:20) 2.7 (00:00) 7.4 10.28 (14:20) 5 (06:40) 0 0 0 0 0
29-03-2019 12.2 (16:00) 4.5 (00:00) 8.3 15.28 (09:20) 8.06 (11:20) 0 0 0 0 0
28-03-2019 13 (15:10) 5.3 (00:00) 9.2 10.56 (13:00) 5.28 (10:00) 0 0 0 0 0
27-03-2019 12.1 (15:00) 2.2 (00:00) 7.2 16.94 (01:20) 9.17 (01:20) 0 0 0 0 0
26-03-2019 14.9 (16:10) 5.1 (00:00) 10 15.28 (23:00) 8.06 (23:00) 0 0 0 0 0
25-03-2019 16.8 (16:00) 6.7 (00:00) 11.7 10 (17:00) 3.89 (09:50) 0 0 0 0 0

Gráficas

Temp. máximas Temp. mínimas Temp. medias Precipitaciones Rachas de viento máximas Velocidades máximas media en intervalos de 10 minutos

Datos horarios

Fecha y hora oficial Temperatura (ºC) Velocidad del viento (km/h) Dirección del viento Racha (km/h) Dirección de racha Precipitación (mm) Presión (hPa) Tendencia (hPa) Humedad (%)
2019-04-23 23:00:00 0.4 16 Sudoeste 30 Sudoeste 0.2 -- -- 100
2019-04-23 22:00:00 0.9 15 Sudoeste 30 Sudoeste 0 -- -- 100
2019-04-23 21:00:00 1.7 16 Sudoeste 35 Sudoeste 0.8 -- -- 100
2019-04-23 20:00:00 1.9 15 Sudoeste 37 Sudoeste 0.2 -- -- 96
2019-04-23 19:00:00 3.2 18 Sudoeste 34 Sudoeste 0.6 -- -- 96
2019-04-23 18:00:00 2.5 17 Sudoeste 43 Sudoeste 2.2 -- -- 100
2019-04-23 17:00:00 3.5 19 Sudoeste 40 Sudoeste 1.8 -- -- 100
2019-04-23 16:00:00 1.1 18 Sudoeste 41 Sudoeste 1.2 -- -- 99
2019-04-23 15:00:00 2.7 9 Sudoeste 26 Sur 2 -- -- 98
2019-04-23 14:00:00 3.4 11 Sur 28 Sur 0.4 -- -- 98
2019-04-23 13:00:00 3.3 10 Sur 28 Sur 0.2 -- -- 94
2019-04-23 12:00:00 3.2 13 Sur 26 Sur 0 -- -- 100
2019-04-23 11:00:00 2.2 10 Sudoeste 28 Sudoeste 0 -- -- 100
2019-04-23 10:00:00 1.1 13 Sudoeste 29 Sudoeste 0 -- -- 100
2019-04-23 09:00:00 1 14 Sudoeste 29 Sudoeste 0 -- -- 100
2019-04-23 08:00:00 1.7 14 Sudoeste 26 Sudoeste 0 -- -- 100
2019-04-23 07:00:00 2.3 14 Sudoeste 31 Sur 0.4 -- -- 100
2019-04-23 06:00:00 2.3 10 Sudoeste 36 Sudoeste 3 -- -- 100
2019-04-23 05:00:00 3.5 12 Sudoeste 30 Oeste 4.2 -- -- 99
2019-04-23 04:00:00 5 12 Sur 35 Sudoeste 1 -- -- 98
2019-04-23 03:00:00 5.7 17 Sur 34 Sur 0 -- -- 97
2019-04-23 02:00:00 7.1 13 Sur 29 Sur 0.2 -- -- 96
2019-04-23 01:00:00 7.3 8 Sur 19 Sudoeste 0.2 -- -- 89
2019-04-23 00:00:00 7.9 6 Sur 21 Sudoeste 0 -- -- 81
2019-04-22 23:00:00 8.6 10 Sudoeste 23 Sudoeste 0 -- -- 79
2019-04-22 22:00:00 9.2 9 Sudoeste 26 Sudoeste 0 -- -- 77
2019-04-22 21:00:00 10.3 10 Sudoeste 23 Sur 0 -- -- 73
2019-04-22 20:00:00 11.3 9 Sudoeste 20 Sur 0 -- -- 64
2019-04-22 19:00:00 12.4 7 Sur 22 Sudoeste 0 -- -- 58
2019-04-22 18:00:00 12.5 10 Sur 19 Sudoeste 0 -- -- 61
2019-04-22 17:00:00 12.1 9 Sudoeste 27 Sudoeste 0 -- -- 66
2019-04-22 16:00:00 11.9 11 Sudoeste 24 Sudoeste 0 -- -- 69
2019-04-22 15:00:00 12.1 9 Sudoeste 23 Sudoeste 0 -- -- 66
2019-04-22 14:00:00 10.2 3 Este 13 Este 0 -- -- 75
2019-04-22 13:00:00 10.6 4 Nordeste 15 Oeste 0 -- -- 74
2019-04-22 12:00:00 11.2 6 Sudoeste 15 Sur 0 -- -- 71
2019-04-22 11:00:00 10.2 5 Oeste 9 Oeste 0 -- -- 71
2019-04-22 10:00:00 8 2 Sudoeste 5 Este 0 -- -- 82
2019-04-22 09:00:00 5.4 4 Este 7 Este 0 -- -- 89
2019-04-22 08:00:00 3.4 0 Calma 12 Este 0 -- -- 92
2019-04-22 07:00:00 3.7 3 Nordeste 12 Nordeste 0 -- -- 90
2019-04-22 06:00:00 3.9 6 Nordeste 15 Este 0 -- -- 90
2019-04-22 05:00:00 3.5 3 Este 7 Nordeste 0 -- -- 91
2019-04-22 04:00:00 3.6 2 Este 6 Nordeste 0 -- -- 91
2019-04-22 03:00:00 4 0 Calma 5 Oeste 0 -- -- 90
2019-04-22 02:00:00 4.8 3 Nordeste 19 Este 0 -- -- 89
2019-04-22 01:00:00 5.3 8 Este 14 Este 0 -- -- 85
2019-04-22 00:00:00 5.9 5 Este 12 Este 0 -- -- 83
2019-04-21 23:00:00 6.1 4 Nordeste 14 Este 0 -- -- 83
2019-04-21 22:00:00 6.4 5 Este 15 Nordeste 0 -- -- 82
2019-04-21 21:00:00 6.4 10 Nordeste 19 Este 0 -- -- 88
2019-04-21 20:00:00 7.1 8 Este 18 Este 0 -- -- 86
2019-04-21 19:00:00 7.2 8 Este 20 Este 0 -- -- 87
2019-04-21 18:00:00 7.8 12 Este 24 Este 0 -- -- 81
2019-04-21 17:00:00 9.2 9 Este 21 Oeste 0 -- -- 78
2019-04-21 16:00:00 11.2 8 Noroeste 26 Oeste 0 -- -- 69
2019-04-21 15:00:00 8.4 7 Este 17 Este 0 -- -- 83
2019-04-21 14:00:00 9.3 6 Este 21 Este 0 -- -- 78
2019-04-21 13:00:00 11.1 6 Sur 21 Nordeste 0 -- -- 71
2019-04-21 12:00:00 10.8 4 Este 14 Sudeste 0 -- -- 68
2019-04-21 11:00:00 10.6 8 Norte 22 Norte 0 -- -- 65
2019-04-21 10:00:00 9.3 11 Norte 21 Norte 0 -- -- 67
2019-04-21 09:00:00 6.2 4 Noroeste 10 Nordeste 0 -- -- 86
2019-04-21 08:00:00 3.7 4 Norte 9 Noroeste 0 -- -- 88
2019-04-21 07:00:00 4.4 4 Este 23 Este 0 -- -- 88
2019-04-21 06:00:00 4.4 13 Este 33 Este 0 -- -- 92
2019-04-21 05:00:00 4.7 14 Este 23 Este 0 -- -- 97
2019-04-21 04:00:00 4.6 9 Este 33 Este 0 -- -- 99
2019-04-21 03:00:00 5 17 Este 35 Este 0 -- -- 97
2019-04-21 02:00:00 5.6 17 Este 38 Este 0 -- -- 94
2019-04-21 01:00:00 6.2 18 Este 45 Este 0 -- -- 92
2019-04-21 00:00:00 6.9 17 Este 35 Este 0 -- -- 86
2019-04-20 23:00:00 8.3 16 Este 33 Este 0 -- -- 81
2019-04-20 22:00:00 9.9 12 Este 31 Este 0 -- -- 68
2019-04-20 21:00:00 11.6 17 Este 34 Nordeste 0 -- -- 61
2019-04-20 20:00:00 12.7 14 Este 30 Este 0 -- -- 58
2019-04-20 19:00:00 13.6 13 Este 31 Este 0 -- -- 53
2019-04-20 18:00:00 15.2 10 Este 23 Nordeste 0 -- -- 49
2019-04-20 17:00:00 15.7 10 Este 31 Este 0 -- -- 48
2019-04-20 16:00:00 15.3 13 Este 26 Este 0 -- -- 54
2019-04-20 15:00:00 15.2 10 Este 27 Este 0 -- -- 58
2019-04-20 14:00:00 14.4 10 Nordeste 22 Sudeste 0 -- -- 56
2019-04-20 13:00:00 13.2 10 Este 28 Nordeste 0 -- -- 56
2019-04-20 12:00:00 13.8 13 Nordeste 31 Este 0 -- -- 52
2019-04-20 11:00:00 12.5 14 Nordeste 33 Nordeste 0 -- -- 54
2019-04-20 10:00:00 10.6 16 Nordeste 35 Este 0 -- -- 63
2019-04-20 09:00:00 9.1 6 Nordeste 24 Norte 0 -- -- 75
2019-04-20 08:00:00 6.2 4 Este 20 Noroeste 0 -- -- 91
2019-04-20 07:00:00 6 2 Sur 14 Este 0 -- -- 96
2019-04-20 06:00:00 7.1 5 Este 20 Norte 0 -- -- 92
2019-04-20 05:00:00 5.7 9 Norte 23 Nordeste 0.2 -- -- 100
2019-04-20 04:00:00 6 12 Nordeste 25 Nordeste 0.4 -- -- 100
2019-04-20 03:00:00 5.7 12 Nordeste 26 Nordeste 0 -- -- 100
2019-04-20 02:00:00 5.8 12 Nordeste 30 Nordeste 0 -- -- 100
2019-04-20 01:00:00 5.8 19 Nordeste 35 Nordeste 0 -- -- 100
2019-04-20 00:00:00 5.3 8 Nordeste 19 Nordeste 0.2 -- -- 100
2019-04-19 23:00:00 5.2 8 Este 18 Este 0 -- -- 100
2019-04-19 22:00:00 5.4 8 Nordeste 23 Este 0.2 -- -- 100
2019-04-19 21:00:00 5.5 10 Este 23 Este 0 -- -- 100
2019-04-19 20:00:00 6.1 11 Este 23 Este 0 -- -- 100
2019-04-19 19:00:00 6.4 14 Nordeste 28 Nordeste 0.2 -- -- 100
2019-04-19 18:00:00 6.6 8 Nordeste 28 Este 1.4 -- -- 99
2019-04-19 17:00:00 7.3 13 Este 30 Este 0.2 -- -- 96
2019-04-19 16:00:00 7.7 12 Este 28 Este 0 -- -- 94
2019-04-19 15:00:00 8.3 14 Este 29 Este 0 -- -- 93
2019-04-19 14:00:00 7.8 15 Este 34 Este 0 -- -- 96
2019-04-19 13:00:00 5.9 14 Este 31 Este 0 -- -- 100
2019-04-19 12:00:00 5.7 12 Este 29 Este 0 -- -- 100
2019-04-19 11:00:00 5.3 14 Este 30 Este 0 -- -- 100
2019-04-19 10:00:00 5 9 Este 22 Este 0 -- -- 100
2019-04-19 09:00:00 4.7 10 Este 21 Este 0 -- -- 100
2019-04-19 08:00:00 4.1 12 Este 24 Este 0 -- -- 100
2019-04-19 07:00:00 3.9 13 Este 24 Este 0 -- -- 100
2019-04-19 06:00:00 3.9 9 Este 17 Este 0 -- -- 99
2019-04-19 05:00:00 3.7 6 Nordeste 15 Este 0 -- -- 98
2019-04-19 04:00:00 3.6 3 Este 9 Este 0 -- -- 95
2019-04-19 03:00:00 3.6 4 Este 10 Nordeste 0.2 -- -- 95
2019-04-19 02:00:00 3.6 4 Nordeste 10 Nordeste 0 -- -- 94
2019-04-19 01:00:00 4 4 Norte 10 Noroeste 0.2 -- -- 95
2019-04-19 00:00:00 4.7 7 Noroeste 11 Norte 0.4 -- -- 94
2019-04-18 23:00:00 4.4 4 Norte 19 Norte 1 -- -- 96
2019-04-18 22:00:00 4.5 9 Noroeste 16 Noroeste 0.2 -- -- 97
2019-04-18 21:00:00 4.6 0 Calma 5 Noroeste 0.6 -- -- 94
2019-04-18 20:00:00 4.8 0 Calma 6 Este 1.4 -- -- 96
2019-04-18 19:00:00 4.5 0 Calma 4 Norte 4 -- -- 96
2019-04-18 18:00:00 4.1 2 Sudeste 13 Norte 7.8 -- -- 95
2019-04-18 17:00:00 4.1 4 Este 31 Este 5 -- -- 91
2019-04-18 16:00:00 9.2 6 Oeste 10 Noroeste 0.4 -- -- 87
2019-04-18 15:00:00 7.6 2 Oeste 5 Sudoeste 0.2 -- -- 90
2019-04-18 14:00:00 7.2 3 Sur 12 Sur 0.4 -- -- 93
2019-04-18 13:00:00 6.6 3 Nordeste 10 Este 0.6 -- -- 95
2019-04-18 12:00:00 6.3 4 Nordeste 11 Nordeste 0.4 -- -- 97
2019-04-18 11:00:00 5.8 3 Nordeste 12 Este 0 -- -- 97
2019-04-18 10:00:00 5.7 2 Este 9 Nordeste 0 -- -- 100
2019-04-18 09:00:00 4.8 0 Calma 2 Este 0 -- -- 100
2019-04-18 08:00:00 4.1 0 Calma 4 Noroeste 0.6 -- -- 100
2019-04-18 07:00:00 4.3 3 Este 8 Este 0 -- -- 100
2019-04-18 06:00:00 4 2 Sudeste 8 Este 0 -- -- 100
2019-04-18 05:00:00 4.7 4 Sudeste 18 Sur 0 -- -- 100
2019-04-18 04:00:00 4.9 6 Sur 24 Sur 1.4 -- -- 100
2019-04-18 03:00:00 5 7 Sur 26 Sur 3 -- -- 100
2019-04-18 02:00:00 5 11 Sudeste 33 Sur 1 -- -- 100
2019-04-18 01:00:00 5.1 17 Sur 41 Sur 2.2 -- -- 100
2019-04-18 00:00:00 5.5 15 Sudeste 35 Sudeste 4 -- -- 100
2019-04-17 23:00:00 5.6 11 Sudeste 30 Sudeste 1 -- -- 100
2019-04-17 22:00:00 5.6 10 Sudeste 28 Sur 1.4 -- -- 97
2019-04-17 21:00:00 6.1 10 Sur 39 Sur 2 -- -- 97
2019-04-17 20:00:00 7.5 13 Sudeste 44 Sudeste 0 -- -- 97
2019-04-17 19:00:00 10 18 Sudeste 48 Este 0 -- -- 82
2019-04-17 18:00:00 11.3 21 Este 45 Este 0 -- -- 71
2019-04-17 17:00:00 12.1 17 Este 35 Este 0 -- -- 64
2019-04-17 16:00:00 12.6 17 Este 42 Este 0 -- -- 66
2019-04-17 15:00:00 11.4 21 Este 42 Este 0 -- -- 68
2019-04-17 14:00:00 10.2 24 Este 43 Este 0 -- -- 78
2019-04-17 13:00:00 10.1 21 Este 41 Este 0 -- -- 76
2019-04-17 12:00:00 9.7 23 Este 47 Este 0 -- -- 75
2019-04-17 11:00:00 9.4 26 Este 47 Este 0 -- -- 77
2019-04-17 10:00:00 8.1 27 Este 47 Este 0 -- -- 83
2019-04-17 09:00:00 7.5 27 Este 49 Este 0 -- -- 85
2019-04-17 08:00:00 7.2 28 Este 54 Este 0 -- -- 85
2019-04-17 07:00:00 8 26 Este 46 Este 0 -- -- 74
2019-04-17 06:00:00 8.5 23 Este 42 Este 0 -- -- 62
2019-04-17 05:00:00 9.1 22 Este 41 Este 0 -- -- 64
2019-04-17 04:00:00 9.7 22 Este 43 Sudeste 0 -- -- 61
2019-04-17 03:00:00 9.5 18 Este 37 Este 0 -- -- 60
2019-04-17 02:00:00 10.2 16 Sudeste 39 Este 0 -- -- 56
2019-04-17 01:00:00 11.2 21 Sudeste 41 Sudeste 0 -- -- 51
2019-04-17 00:00:00 11.9 20 Este 38 Este 0 -- -- 51
2019-04-16 23:00:00 12 17 Este 40 Este 0 -- -- 50
2019-04-16 22:00:00 11.8 16 Este 36 Este 0 -- -- 51
2019-04-16 21:00:00 11.5 13 Este 28 Este 0 -- -- 52
2019-04-16 20:00:00 12.3 12 Este 29 Este 0 -- -- 50
2019-04-16 19:00:00 13.3 14 Este 32 Este 0 -- -- 43
2019-04-16 18:00:00 13.3 15 Este 40 Este 0 -- -- 43
2019-04-16 17:00:00 13.4 19 Este 39 Este 0 -- -- 41
2019-04-16 16:00:00 13.6 17 Este 36 Sudeste 0 -- -- 49
2019-04-16 15:00:00 12.1 19 Este 36 Este 0 -- -- 53
2019-04-16 14:00:00 11.1 18 Este 37 Este 0 -- -- 57
2019-04-16 13:00:00 10.4 20 Este 40 Este 0 -- -- 72
2019-04-16 12:00:00 9.6 17 Este 37 Este 0 -- -- 78
2019-04-16 11:00:00 8.8 16 Este 33 Este 0 -- -- 79
2019-04-16 10:00:00 7.9 17 Este 30 Nordeste 0 -- -- 80
2019-04-16 09:00:00 6.9 13 Este 23 Este 0 -- -- 76
2019-04-16 08:00:00 4.9 8 Este 18 Este 0 -- -- 83
2019-04-16 07:00:00 4.4 7 Este 17 Este 0 -- -- 87
2019-04-16 06:00:00 4 2 Sudeste 6 Este 0 -- -- 88
2019-04-16 05:00:00 3.9 2 Este 4 Este 0 -- -- 80
2019-04-16 04:00:00 4 0 Calma 7 Noroeste 0 -- -- 82
2019-04-16 03:00:00 4.6 3 Norte 12 Norte 0 -- -- 78
2019-04-16 02:00:00 4.9 9 Noroeste 18 Norte 0 -- -- 85
2019-04-16 01:00:00 5.6 10 Noroeste 26 Norte 0 -- -- 87
2019-04-16 00:00:00 6.3 13 Noroeste 31 Noroeste 0 -- -- 90
2019-04-15 23:00:00 7.3 12 Oeste 23 Oeste 0 -- -- 93
2019-04-15 22:00:00 7.5 10 Sudoeste 24 Sudoeste 0 -- -- 93
2019-04-15 21:00:00 7.9 14 Sudoeste 29 Sudoeste 0 -- -- 95
2019-04-15 20:00:00 8.9 12 Oeste 27 Oeste 0 -- -- 90
2019-04-15 19:00:00 8.9 15 Oeste 30 Sudoeste 0.2 -- -- 90
2019-04-15 18:00:00 7.2 9 Sudoeste 32 Oeste 0.6 -- -- 88
2019-04-15 17:00:00 8.5 18 Sudoeste 39 Sudoeste 0 -- -- 83
2019-04-15 16:00:00 13.2 17 Sudoeste 38 Sudoeste 0 -- -- 60
2019-04-15 15:00:00 13.3 10 Sudoeste 26 Sur 0 -- -- 71
2019-04-15 14:00:00 13.3 12 Sur 24 Sur 0 -- -- 71
2019-04-15 13:00:00 12.5 12 Sur 24 Sudeste 0 -- -- 84
2019-04-15 12:00:00 11.7 10 Sudeste 26 Sudeste 0 -- -- 90
2019-04-15 11:00:00 10.9 12 Sudeste 27 Este 0 -- -- 91
2019-04-15 10:00:00 10.7 15 Este 36 Este 0 -- -- 92
2019-04-15 09:00:00 10.7 16 Este 33 Este 0 -- -- 90
2019-04-15 08:00:00 10.6 17 Este 32 Este 0 -- -- 91
2019-04-15 07:00:00 10.8 17 Este 30 Nordeste 0 -- -- 91
2019-04-15 06:00:00 10.9 11 Este 20 Este 0 -- -- 92
2019-04-15 05:00:00 11.3 7 Sudeste 16 Este 0 -- -- 91
2019-04-15 04:00:00 10.5 6 Sudeste 13 Sudeste 0 -- -- 92
2019-04-15 03:00:00 10.5 3 Sudeste 9 Este 0 -- -- 89
2019-04-15 02:00:00 10.4 2 Sudeste 6 Sudeste 0 -- -- 90
2019-04-15 01:00:00 10.2 3 Sudeste 7 Sur 0 -- -- 87
2019-04-15 00:00:00 10.8 3 Sudeste 6 Este 0 -- -- 84
2019-04-14 23:00:00 11.9 2 Sudeste 8 Sur 0 -- -- 79
2019-04-14 22:00:00 12.5 0 Calma 8 Sudoeste 0 -- -- 77
2019-04-14 21:00:00 13.5 3 Sudoeste 12 Sudoeste 0 -- -- 72
2019-04-14 20:00:00 14.8 6 Sudoeste 22 Sudoeste 0 -- -- 66
2019-04-14 19:00:00 16.1 13 Sudoeste 24 Sudoeste 0 -- -- 61
2019-04-14 18:00:00 16.2 11 Sudoeste 21 Sudoeste 0 -- -- 62
2019-04-14 17:00:00 17.7 9 Sudoeste 23 Sudoeste 0 -- -- 62
2019-04-14 16:00:00 15.4 8 Sudoeste 18 Sur 0 -- -- 71
2019-04-14 15:00:00 15.8 4 Sur 19 Sudoeste 0 -- -- 68
2019-04-14 14:00:00 16.7 8 Sur 16 Sudoeste 0 -- -- 65
2019-04-14 13:00:00 17.7 10 Noroeste 18 Oeste 0 -- -- 60
2019-04-14 12:00:00 16.1 9 Oeste 19 Sudoeste 0 -- -- 60
2019-04-14 11:00:00 15.2 8 Noroeste 13 Noroeste 0 -- -- 59
2019-04-14 10:00:00 12.4 8 Norte 15 Norte 0 -- -- 64
2019-04-14 09:00:00 9.6 6 Noroeste 10 Norte 0 -- -- 72
2019-04-14 08:00:00 8.1 4 Noroeste 10 Noroeste 0 -- -- 70
2019-04-14 07:00:00 8.5 5 Norte 14 Norte 0 -- -- 66
2019-04-14 06:00:00 8.6 6 Norte 14 Noroeste 0 -- -- 66
2019-04-14 05:00:00 8.7 6 Noroeste 9 Noroeste 0 -- -- 66
2019-04-14 04:00:00 8.8 3 Norte 12 Norte 0 -- -- 63
2019-04-14 03:00:00 8.2 6 Norte 14 Noroeste 0 -- -- 66
2019-04-14 02:00:00 8.4 8 Noroeste 12 Noroeste 0 -- -- 79
2019-04-14 01:00:00 9.3 7 Oeste 17 Sudoeste 0 -- -- 84
2019-04-14 00:00:00 9.6 6 Oeste 13 Oeste 0 -- -- 73
2019-04-13 23:00:00 9.8 7 Sudoeste 16 Sudoeste 0 -- -- 61
2019-04-13 22:00:00 10.6 10 Sudoeste 21 Sudoeste 0 -- -- 52
2019-04-13 21:00:00 11.1 12 Sudoeste 23 Sudoeste 0 -- -- 55
2019-04-13 20:00:00 13.4 11 Sudoeste 27 Sudoeste 0 -- -- 49
2019-04-13 19:00:00 15.3 12 Sudoeste 27 Sudoeste 0 -- -- 43
2019-04-13 18:00:00 16.2 9 Sudoeste 23 Sudoeste 0 -- -- 34
2019-04-13 17:00:00 16.3 10 Sudoeste 24 Sudoeste 0 -- -- 38
2019-04-13 16:00:00 16.1 12 Sudoeste 23 Sudoeste 0 -- -- 43
2019-04-13 15:00:00 15.7 7 Sudoeste 17 Sudoeste 0 -- -- 45
2019-04-13 14:00:00 15.3 7 Sur 20 Sudoeste 0 -- -- 43
2019-04-13 13:00:00 14.2 7 Sudeste 15 Este 0 -- -- 40
2019-04-13 12:00:00 14.8 6 Oeste 14 Noroeste 0 -- -- 33
2019-04-13 11:00:00 13.4 9 Norte 15 Noroeste 0 -- -- 36
2019-04-13 10:00:00 10.6 9 Norte 19 Noroeste 0 -- -- 46
2019-04-13 09:00:00 7.3 7 Norte 14 Norte 0 -- -- 52
2019-04-13 08:00:00 5.6 0 Calma 18 Norte 0 -- -- 51
2019-04-13 07:00:00 5.5 8 Norte 18 Norte 0 -- -- 50
2019-04-13 06:00:00 5.2 6 Noroeste 9 Norte 0 -- -- 52
2019-04-13 05:00:00 6.2 4 Nordeste 11 Norte 0 -- -- 42
2019-04-13 04:00:00 5.1 6 Norte 10 Norte 0 -- -- 52
2019-04-13 03:00:00 5.3 3 Norte 10 Noroeste 0 -- -- 54
2019-04-13 02:00:00 5.6 5 Norte 10 Noroeste 0 -- -- 56
2019-04-13 01:00:00 6.4 4 Norte 16 Norte 0 -- -- 53
2019-04-13 00:00:00 7 7 Norte 22 Noroeste 0 -- -- 54
2019-04-12 23:00:00 7.5 11 Norte 21 Norte 0 -- -- 55
2019-04-12 22:00:00 7.9 7 Norte 15 Noroeste 0 -- -- 54
2019-04-12 21:00:00 9.6 6 Noroeste 24 Noroeste 0 -- -- 50
2019-04-12 20:00:00 11.8 12 Noroeste 24 Noroeste 0 -- -- 44
2019-04-12 19:00:00 13.5 13 Noroeste 30 Noroeste 0 -- -- 41
2019-04-12 18:00:00 14.6 14 Noroeste 31 Noroeste 0 -- -- 40
2019-04-12 17:00:00 15.3 10 Noroeste 22 Noroeste 0 -- -- 42
2019-04-12 16:00:00 14.7 9 Oeste 24 Oeste 0 -- -- 43
2019-04-12 15:00:00 14.3 9 Oeste 21 Oeste 0 -- -- 46
2019-04-12 14:00:00 13.5 7 Oeste 22 Oeste 0 -- -- 46
2019-04-12 13:00:00 12.6 9 Noroeste 19 Noroeste 0 -- -- 45
2019-04-12 12:00:00 10.7 9 Norte 19 Noroeste 0 -- -- 48
2019-04-12 11:00:00 9.8 5 Norte 15 Nordeste 0 -- -- 46
2019-04-12 10:00:00 8.1 5 Noroeste 9 Noroeste 0 -- -- 54
2019-04-12 09:00:00 4.4 0 Calma 3 Sur 0 -- -- 64
2019-04-12 08:00:00 2.6 2 Sur 2 Sur 0 -- -- 66
2019-04-12 07:00:00 2.8 2 Sudeste 4 Sur 0 -- -- 66
2019-04-12 06:00:00 3.6 0 Calma 5 Norte 0 -- -- 63
2019-04-12 05:00:00 4.1 3 Norte 7 Norte 0 -- -- 60
2019-04-12 04:00:00 4.3 4 Norte 10 Nordeste 0 -- -- 59
2019-04-12 03:00:00 4.5 6 Norte 12 Norte 0 -- -- 58
2019-04-12 02:00:00 4.5 5 Norte 15 Nordeste 0 -- -- 59
2019-04-12 01:00:00 4.7 5 Norte 15 Nordeste 0 -- -- 58
2019-04-12 00:00:00 4.9 7 Norte 22 Norte 0 -- -- 58
2019-04-11 23:00:00 5.2 9 Norte 26 Norte 0 -- -- 59
2019-04-11 22:00:00 5.4 11 Norte 27 Norte 0 -- -- 62
2019-04-11 21:00:00 6.5 12 Norte 28 Norte 0 -- -- 55
2019-04-11 20:00:00 8.5 13 Norte 25 Norte 0 -- -- 48
2019-04-11 19:00:00 10.2 13 Norte 27 Norte 0 -- -- 44
2019-04-11 18:00:00 10.6 13 Norte 28 Norte 0 -- -- 47
2019-04-11 17:00:00 9 4 Este 23 Nordeste 0 -- -- 61
2019-04-11 16:00:00 9.1 6 Nordeste 19 Este 0 -- -- 65
2019-04-11 15:00:00 8.9 3 Este 16 Norte 0 -- -- 59
2019-04-11 14:00:00 8.3 4 Sur 17 Oeste 0 -- -- 65
2019-04-11 13:00:00 8.2 4 Oeste 13 Oeste 0 -- -- 67
2019-04-11 12:00:00 7.2 0 Calma 11 Sur 0.2 -- -- 68
2019-04-11 11:00:00 8.3 6 Sudoeste 12 Sudoeste 0 -- -- 66
2019-04-11 10:00:00 6.5 2 Sudoeste 8 Nordeste 0 -- -- 68
2019-04-11 09:00:00 4.6 4 Nordeste 13 Nordeste 0 -- -- 65
2019-04-11 08:00:00 2.7 9 Norte 15 Norte 0 -- -- 70
2019-04-11 07:00:00 2 7 Norte 15 Norte 0 -- -- 76
2019-04-11 06:00:00 1.8 4 Norte 14 Norte 0 -- -- 78
2019-04-11 05:00:00 2.8 4 Nordeste 13 Norte 0 -- -- 77
2019-04-11 04:00:00 2.4 9 Norte 19 Norte 0 -- -- 82
2019-04-11 03:00:00 2.9 9 Norte 28 Norte 0 -- -- 80
2019-04-11 02:00:00 3.3 12 Norte 23 Noroeste 0 -- -- 75
2019-04-11 01:00:00 2.6 7 Norte 18 Noroeste 0 -- -- 83
2019-04-11 00:00:00 2.9 8 Norte 30 Norte 0 -- -- 85
2019-04-10 23:00:00 3.2 3 Norte 39 Noroeste 0 -- -- 84
2019-04-10 22:00:00 3.6 26 Noroeste 49 Noroeste 0 -- -- 85
2019-04-10 21:00:00 3.5 20 Noroeste 42 Norte 0.4 -- -- 87
2019-04-10 20:00:00 4.8 21 Norte 38 Noroeste 0 -- -- 77
2019-04-10 19:00:00 9.3 14 Oeste 36 Oeste 0 -- -- 63
2019-04-10 18:00:00 7.9 12 Oeste 30 Oeste 0 -- -- 69
2019-04-10 17:00:00 6.3 10 Sudoeste 26 Sudoeste 0 -- -- 78
2019-04-10 16:00:00 5.5 9 Sudoeste 28 Sudoeste 0 -- -- 82
2019-04-10 15:00:00 4.9 11 Sudoeste 30 Sudoeste 0 -- -- 86
2019-04-10 14:00:00 4.7 8 Oeste 22 Oeste 0 -- -- 86
2019-04-10 13:00:00 4.6 12 Sudoeste 26 Sudoeste 0 -- -- 90
2019-04-10 12:00:00 3.9 6 Oeste 20 Oeste 0 -- -- 91
2019-04-10 11:00:00 3.6 6 Noroeste 14 Oeste 0 -- -- 96
2019-04-10 10:00:00 2.3 6 Sudoeste 19 Oeste 0 -- -- 99
2019-04-10 09:00:00 1.9 7 Oeste 22 Oeste 0 -- -- 100
2019-04-10 08:00:00 1.7 8 Sudoeste 16 Sudoeste 0 -- -- 99
2019-04-10 07:00:00 1.9 6 Sudoeste 17 Sudoeste 0 -- -- 95
2019-04-10 06:00:00 1.9 9 Sudoeste 21 Sudoeste 0 -- -- 93
2019-04-10 05:00:00 2.1 3 Noroeste 26 Noroeste 0 -- -- 93
2019-04-10 04:00:00 2 4 Noroeste 25 Noroeste 0 -- -- 91
2019-04-10 03:00:00 2.3 5 Oeste 20 Oeste 0 -- -- 97
2019-04-10 02:00:00 2.5 6 Sudoeste 26 Sudoeste 0 -- -- 98
2019-04-10 01:00:00 2.6 12 Sudoeste 25 Oeste 0 -- -- 99
2019-04-10 00:00:00 3.1 11 Oeste 32 Oeste 0.2 -- -- 98
2019-04-09 23:00:00 3.4 8 Oeste 34 Oeste 0 -- -- 95
2019-04-09 22:00:00 3.6 11 Sudoeste 31 Oeste 0 -- -- 92
2019-04-09 21:00:00 4.3 15 Oeste 31 Sudoeste 0 -- -- 91
2019-04-09 20:00:00 5 20 Sudoeste 35 Sudoeste 0.2 -- -- 91
2019-04-09 19:00:00 6 12 Sudoeste 31 Sudoeste 0 -- -- 91
2019-04-09 18:00:00 4.8 13 Sudoeste 37 Sudoeste 2 -- -- 97
2019-04-09 17:00:00 5.4 14 Sudoeste 26 Oeste 0.2 -- -- 97
2019-04-09 16:00:00 4.3 8 Oeste 33 Sudoeste 0.2 -- -- 96
2019-04-09 15:00:00 5.6 10 Sudoeste 24 Sudoeste 0 -- -- 100
2019-04-09 14:00:00 4.2 12 Oeste 30 Sudoeste 0 -- -- 100
2019-04-09 13:00:00 2.8 15 Oeste 31 Sudoeste 0.2 -- -- 100
2019-04-09 12:00:00 2.3 18 Oeste 47 Sudoeste 2.4 -- -- 100
2019-04-09 11:00:00 2.6 19 Sudoeste 38 Sudoeste 0.2 -- -- 100
2019-04-09 10:00:00 2.5 14 Sudoeste 35 Sudoeste 1 -- -- 100
2019-04-09 09:00:00 2 14 Sudoeste 36 Sudoeste 1 -- -- 100
2019-04-09 08:00:00 1.4 16 Sudoeste 40 Sudoeste 3 -- -- 100
2019-04-09 07:00:00 2.5 19 Sudoeste 42 Sudoeste 0 -- -- 100
2019-04-09 06:00:00 2.4 13 Sudoeste 34 Sudoeste 0 -- -- 100
2019-04-09 05:00:00 2.5 20 Sudoeste 36 Oeste 0.2 -- -- 100
2019-04-09 04:00:00 2.5 17 Sudoeste 31 Sudoeste 0 -- -- 100
2019-04-09 03:00:00 2.6 17 Sudoeste 37 Sudoeste 0 -- -- 100
2019-04-09 02:00:00 2.7 17 Sudoeste 36 Sudoeste 0 -- -- 100
2019-04-09 01:00:00 3.1 12 Sudoeste 36 Sudoeste 0 -- -- 100
2019-04-09 00:00:00 3.5 17 Sudoeste 31 Sudoeste 0 -- -- 100
2019-04-08 23:00:00 3.6 13 Sudoeste 26 Sudoeste 0 -- -- 100
2019-04-08 22:00:00 3.9 12 Sudoeste 22 Sudoeste 0 -- -- 99
2019-04-08 21:00:00 4.1 11 Sudoeste 30 Sudoeste 0 -- -- 97
2019-04-08 20:00:00 4.6 14 Sudoeste 28 Sudoeste 0.2 -- -- 98
2019-04-08 19:00:00 5.3 21 Sudoeste 42 Sudoeste 0.4 -- -- 90
2019-04-08 18:00:00 7.5 17 Sudoeste 33 Sudoeste 0 -- -- 71
2019-04-08 17:00:00 8.9 18 Sudoeste 32 Sudoeste 0 -- -- 60
2019-04-08 16:00:00 7.9 13 Sudoeste 26 Sudoeste 0 -- -- 73
2019-04-08 15:00:00 7.5 10 Sudoeste 23 Sudoeste 0.2 -- -- 80
2019-04-08 14:00:00 8 12 Sudoeste 23 Sudoeste 0 -- -- 82
2019-04-08 13:00:00 7.9 11 Sudoeste 24 Sudoeste 0 -- -- 85
2019-04-08 12:00:00 6.3 13 Sudoeste 23 Sudoeste 0 -- -- 96
2019-04-08 11:00:00 6.1 14 Sudoeste 28 Oeste 0 -- -- 100
2019-04-08 10:00:00 4.8 15 Oeste 31 Sudoeste 0 -- -- 100
2019-04-08 09:00:00 4.1 14 Sudoeste 30 Sudoeste 0 -- -- 100
2019-04-08 08:00:00 4.8 15 Sudoeste 29 Oeste 0.2 -- -- 100
2019-04-08 07:00:00 5.2 16 Sudoeste 32 Sudoeste 1 -- -- 100
2019-04-08 06:00:00 5.5 12 Sudoeste 28 Sudoeste 5.8 -- -- 100
2019-04-08 05:00:00 5.5 10 Sur 23 Sur 5 -- -- 100
2019-04-08 04:00:00 5.5 9 Sur 29 Sudoeste 1.8 -- -- 100
2019-04-08 03:00:00 5.1 17 Sur 36 Sudeste 2 -- -- 100
2019-04-08 02:00:00 5.4 10 Sudoeste 25 Sudoeste 0.4 -- -- 100
2019-04-08 01:00:00 5.2 12 Sudoeste 30 Sudoeste 0.2 -- -- 100
2019-04-08 00:00:00 5.2 13 Sudoeste 33 Sudoeste 0 -- -- 100
2019-04-07 23:00:00 5.4 14 Sudoeste 32 Oeste 0 -- -- 100
2019-04-07 22:00:00 5.4 12 Sur 29 Sur 0.6 -- -- 100
2019-04-07 21:00:00 5.1 8 Sur 26 Sur 1.6 -- -- 100
2019-04-07 20:00:00 4.9 6 Sur 20 Sur 1 -- -- 100
2019-04-07 19:00:00 4.7 5 Sur 15 Sur 0.8 -- -- 100
2019-04-07 18:00:00 4.5 5 Sur 11 Sur 1 -- -- 100
2019-04-07 17:00:00 4.1 5 Sur 17 Sudoeste 0.2 -- -- 100
2019-04-07 16:00:00 4.2 6 Sur 20 Sudoeste 0 -- -- 99
2019-04-07 15:00:00 4.3 8 Sudoeste 23 Sudoeste 0.2 -- -- 97
2019-04-07 14:00:00 4.9 11 Sudoeste 22 Sur 0 -- -- 98
2019-04-07 13:00:00 3.8 8 Oeste 17 Sudoeste 0 -- -- 100
2019-04-07 12:00:00 3.3 9 Noroeste 23 Noroeste 0 -- -- 100
2019-04-07 11:00:00 2.1 10 Noroeste 23 Oeste 0.4 -- -- 100
2019-04-07 10:00:00 1.2 8 Oeste 22 Noroeste 0.6 -- -- 100
2019-04-07 09:00:00 0.5 11 Sudoeste 22 Sudoeste 0.2 -- -- 100
2019-04-07 08:00:00 0.3 11 Sudoeste 25 Sudoeste 0.4 -- -- 100
2019-04-07 07:00:00 0.3 14 Sudoeste 30 Sudoeste 0.2 -- -- 100
2019-04-07 06:00:00 0.3 17 Sudoeste 40 Sudoeste 0.6 -- -- 100
2019-04-07 05:00:00 0.3 18 Sudoeste 37 Sudoeste 0.4 -- -- 100
2019-04-07 04:00:00 0.4 17 Sudoeste 36 Sudoeste 0.6 -- -- 100
2019-04-07 03:00:00 0.3 20 Sudoeste 38 Oeste 0.2 -- -- 100
2019-04-07 02:00:00 0.2 19 Sudoeste 36 Sudoeste 0.2 -- -- 100
2019-04-07 01:00:00 0.1 16 Sudoeste 31 Oeste 0 -- -- 100
2019-04-07 00:00:00 0.4 13 Sudoeste 37 Oeste 0.2 -- -- 100
2019-04-06 23:00:00 0.7 16 Sudoeste 33 Sudoeste 0 -- -- 100
2019-04-06 22:00:00 1 14 Sudoeste 34 Sudoeste 0 -- -- 100
2019-04-06 21:00:00 1.1 18 Sudoeste 32 Sudoeste 0.2 -- -- 100
2019-04-06 20:00:00 0.8 14 Sudoeste 31 Oeste 0 -- -- 100
2019-04-06 19:00:00 0.3 13 Sudoeste 45 Sudoeste 0.4 -- -- 100
2019-04-06 18:00:00 1.6 21 Sudoeste 45 Sudoeste 0.6 -- -- 99
2019-04-06 17:00:00 2.5 15 Sudoeste 39 Sudoeste 1.6 -- -- 100
2019-04-06 16:00:00 1.4 19 Sudoeste 34 Sudoeste 0.8 -- -- 100
2019-04-06 15:00:00 0.8 17 Sudoeste 35 Sudoeste 1.4 -- -- 100
2019-04-06 14:00:00 0.1 17 Sudoeste 40 Sudoeste 1.6 -- -- 100
2019-04-06 13:00:00 0.3 3 Sudoeste 29 Sudoeste 0.8 -- -- 100
2019-04-06 12:00:00 -0.1 0 Calma -- -- 0.2 -- -- 100
2019-04-06 11:00:00 -0.2 0 Calma -- -- 0 -- -- 100
2019-04-06 10:00:00 -0.2 0 Calma -- -- 0 -- -- 100
2019-04-06 09:00:00 -0.4 0 Calma -- -- 0 -- -- 100
2019-04-06 08:00:00 -0.1 0 Calma -- -- 0 -- -- 100
2019-04-06 07:00:00 -0.2 0 Calma -- -- 0 -- -- 100
2019-04-06 06:00:00 -0.4 0 Calma -- -- 0 -- -- 100
2019-04-06 05:00:00 -0.8 0 Calma -- -- 0 -- -- 100
2019-04-06 04:00:00 -1.1 0 Calma -- -- 0 -- -- 100
2019-04-06 03:00:00 -0.9 0 Calma -- -- 0 -- -- 100
2019-04-06 02:00:00 -0.8 0 Calma -- -- 0 -- -- 100
2019-04-06 01:00:00 -1 0 Calma -- -- 0 -- -- 100
2019-04-06 00:00:00 -0.7 0 Calma -- -- 0 -- -- 100
2019-04-05 23:00:00 -0.5 0 Calma 29 Sudoeste 0 -- -- 100
2019-04-05 22:00:00 -0.2 9 Oeste 40 Sudoeste 0 -- -- 100
2019-04-05 21:00:00 0.6 17 Sudoeste 32 Sudoeste 0 -- -- 98
2019-04-05 20:00:00 1.4 13 Sudoeste 36 Sudoeste 0.4 -- -- 96
2019-04-05 19:00:00 2.5 21 Sudoeste 40 Sudoeste 1.2 -- -- 86
2019-04-05 18:00:00 2 19 Sudoeste 35 Sudoeste 1.8 -- -- 89
2019-04-05 17:00:00 2.2 13 Oeste 35 Oeste 1.6 -- -- 92
2019-04-05 16:00:00 1.1 18 Oeste 31 Oeste 1.8 -- -- 94
2019-04-05 15:00:00 0.6 15 Oeste 35 Sudoeste 2 -- -- 97
2019-04-05 14:00:00 1.3 14 Sudoeste 26 Sudoeste 2.6 -- -- 98
2019-04-05 13:00:00 1 11 Oeste 27 Sudoeste 2.4 -- -- 99
2019-04-05 12:00:00 0.1 11 Oeste 29 Sudoeste 1 -- -- 100
2019-04-05 11:00:00 -0.1 17 Sudoeste 31 Sudoeste 0.6 -- -- 100
2019-04-05 10:00:00 0.8 8 Sur 18 Sudoeste 1 -- -- 100
2019-04-05 09:00:00 0.6 5 Sur 18 Sudoeste 0.8 -- -- 100
2019-04-05 08:00:00 0.8 7 Sudoeste 23 Sur 1.2 -- -- 100
2019-04-05 07:00:00 0.6 10 Sur 26 Sur 1.4 -- -- 100
2019-04-05 06:00:00 0.8 12 Sur 31 Sur 0.2 -- -- 100
2019-04-05 05:00:00 0.8 9 Sur 24 Sur 0 -- -- 100
2019-04-05 04:00:00 0.5 0 Calma -- -- 0 -- -- 100
2019-04-05 03:00:00 0.1 0 Calma 17 Sudoeste 0 -- -- 99
2019-04-05 02:00:00 0.3 8 Sur 17 Sur 0 -- -- 99
2019-04-05 01:00:00 0.3 7 Sudoeste 23 Sudoeste 0 -- -- 99
2019-04-05 00:00:00 0.4 9 Sudoeste 19 Sudoeste 0 -- -- 98
2019-04-04 23:00:00 0.9 8 Sur 34 Sudoeste 1.2 -- -- 95
2019-04-04 22:00:00 3 15 Sudoeste 32 Sudoeste 0 -- -- 83
2019-04-04 21:00:00 5.2 10 Sudoeste 27 Sudoeste 0 -- -- 49
2019-04-04 20:00:00 6.1 12 Sudoeste 23 Sudoeste 0 -- -- 43
2019-04-04 19:00:00 7.4 11 Sudoeste 27 Sudoeste 0 -- -- 38
2019-04-04 18:00:00 9 9 Sur 33 Sudoeste 0 -- -- 38
2019-04-04 17:00:00 9.8 9 Sur 24 Sudoeste 0 -- -- 38
2019-04-04 16:00:00 9.5 11 Sudoeste 27 Sudoeste 0 -- -- 32
2019-04-04 15:00:00 8.6 11 Sur 28 Sudoeste 0 -- -- 36
2019-04-04 14:00:00 8.5 11 Sur 24 Sudeste 0 -- -- 41
2019-04-04 13:00:00 7.7 6 Sur 18 Sur 0 -- -- 38
2019-04-04 12:00:00 6.5 6 Sur 16 Sur 0 -- -- 41
2019-04-04 11:00:00 5.4 5 Sur 12 Sudoeste 0 -- -- 43
2019-04-04 10:00:00 2.4 6 Este 14 Este 0 -- -- 56
2019-04-04 09:00:00 0.2 5 Este 17 Este 0 -- -- 63
2019-04-04 08:00:00 -0.7 6 Nordeste 14 Nordeste 0 -- -- 62
2019-04-04 07:00:00 -1.1 5 Este 13 Norte 0 -- -- 55
2019-04-04 06:00:00 -1.6 5 Norte 15 Norte 0 -- -- 59
2019-04-04 05:00:00 -0.4 9 Norte 23 Nordeste 0 -- -- 49
2019-04-04 04:00:00 -0.5 12 Norte 28 Norte 0 -- -- 61
2019-04-04 03:00:00 -0.4 13 Norte 50 Norte 0 -- -- 66
2019-04-04 02:00:00 0.5 23 Norte 42 Norte 0 -- -- 61
2019-04-04 01:00:00 0.8 16 Norte 37 Noroeste 0 -- -- 60
2019-04-04 00:00:00 1.6 16 Norte 42 Noroeste 0 -- -- 60
2019-04-03 23:00:00 2.5 16 Noroeste 55 Noroeste 0 -- -- 58
2019-04-03 22:00:00 3.2 32 Noroeste 53 Noroeste 0 -- -- 56
2019-04-03 21:00:00 4.2 26 Noroeste 57 Noroeste 0 -- -- 52
2019-04-03 20:00:00 5.9 38 Noroeste 66 Noroeste 0 -- -- 45
2019-04-03 19:00:00 7.5 35 Noroeste 60 Noroeste 0 -- -- 42
2019-04-03 18:00:00 8.8 41 Noroeste 67 Noroeste 0 -- -- 42
2019-04-03 17:00:00 9.4 41 Noroeste 64 Noroeste 0 -- -- 41
2019-04-03 16:00:00 10.5 31 Noroeste 60 Noroeste 0 -- -- 42
2019-04-03 15:00:00 11.1 28 Noroeste 50 Noroeste 0 -- -- 36
2019-04-03 14:00:00 10.4 24 Noroeste 53 Noroeste 0 -- -- 42
2019-04-03 13:00:00 10.9 12 Noroeste 28 Noroeste 0 -- -- 49
2019-04-03 12:00:00 10.8 9 Noroeste 19 Norte 0 -- -- 46
2019-04-03 11:00:00 8.7 8 Norte 18 Noroeste 0 -- -- 59
2019-04-03 10:00:00 7.1 13 Noroeste 21 Noroeste 0 -- -- 64
2019-04-03 09:00:00 4.8 9 Noroeste 14 Noroeste 0 -- -- 68
2019-04-03 08:00:00 3.8 9 Noroeste 18 Noroeste 0 -- -- 75
2019-04-03 07:00:00 5 13 Noroeste 31 Noroeste 0 -- -- 65
2019-04-03 06:00:00 5 18 Noroeste 31 Noroeste 0 -- -- 71
2019-04-03 05:00:00 5.5 5 Oeste 12 Oeste 0 -- -- 67
2019-04-03 04:00:00 5.5 5 Oeste 12 Noroeste 0 -- -- 69
2019-04-03 03:00:00 5.8 6 Noroeste 12 Noroeste 0 -- -- 72
2019-04-03 02:00:00 6.1 8 Norte 15 Noroeste 0 -- -- 70
2019-04-03 01:00:00 6.6 3 Norte 21 Noroeste 0 -- -- 69
2019-04-03 00:00:00 7.7 7 Noroeste 32 Oeste 0 -- -- 68
2019-04-02 23:00:00 8.4 12 Sudoeste 24 Sudoeste 0 -- -- 72
2019-04-02 22:00:00 9.1 15 Sudoeste 24 Oeste 0 -- -- 68
2019-04-02 21:00:00 9.8 10 Sudoeste 23 Sudoeste 0 -- -- 66
2019-04-02 20:00:00 11.5 12 Sudoeste 29 Oeste 0 -- -- 59
2019-04-02 19:00:00 13.2 14 Oeste 32 Sudoeste 0 -- -- 52
2019-04-02 18:00:00 13.6 16 Sudoeste 32 Sudoeste 0 -- -- 54
2019-04-02 17:00:00 14.5 12 Sudoeste 25 Sudoeste 0 -- -- 53
2019-04-02 16:00:00 14.7 16 Sudoeste 29 Oeste 0 -- -- 51
2019-04-02 15:00:00 14.6 13 Oeste 28 Oeste 0 -- -- 46
2019-04-02 14:00:00 12.2 5 Oeste 15 Oeste 0 -- -- 58
2019-04-02 13:00:00 11.5 4 Oeste 16 Noroeste 0 -- -- 61
2019-04-02 12:00:00 13.1 11 Noroeste 19 Norte 0 -- -- 55
2019-04-02 11:00:00 10.5 11 Noroeste 19 Noroeste 0 -- -- 69
2019-04-02 10:00:00 8.7 6 Noroeste 12 Noroeste 0 -- -- 79
2019-04-02 09:00:00 5.2 2 Noroeste 9 Norte 0 -- -- 90
2019-04-02 08:00:00 4.9 3 Norte 9 Noroeste 0 -- -- 86
2019-04-02 07:00:00 5.6 0 Calma 5 Noroeste 0 -- -- 86
2019-04-02 06:00:00 6 3 Oeste 9 Oeste 0 -- -- 89
2019-04-02 05:00:00 6 0 Calma 8 Sudoeste 0 -- -- 87
2019-04-02 04:00:00 6.4 6 Oeste 10 Sudoeste 0 -- -- 84
2019-04-02 03:00:00 6.3 0 Calma 4 Noroeste 0 -- -- 86
2019-04-02 02:00:00 6.2 0 Calma 3 Sudeste 0 -- -- 87
2019-04-02 01:00:00 6 0 Calma 4 Sur 0 -- -- 87
2019-04-02 00:00:00 6.3 0 Calma 4 Sudoeste 0 -- -- 84
2019-04-01 23:00:00 6.4 2 Sur 4 Sur 0 -- -- 88
2019-04-01 22:00:00 6.9 0 Calma 9 Noroeste 0 -- -- 84
2019-04-01 21:00:00 8.4 5 Noroeste 10 Noroeste 0 -- -- 88
2019-04-01 20:00:00 9.2 3 Sudoeste 10 Sudoeste 0 -- -- 83
2019-04-01 19:00:00 9.7 5 Este 13 Este 0 -- -- 69
2019-04-01 18:00:00 9.8 5 Este 9 Sudeste 0 -- -- 67
2019-04-01 17:00:00 9.8 7 Este 18 Sudeste 0 -- -- 67
2019-04-01 16:00:00 9.6 4 Este 20 Este 0 -- -- 71
2019-04-01 15:00:00 9.1 11 Este 22 Este 0 -- -- 78
2019-04-01 14:00:00 7.9 12 Este 24 Este 0 -- -- 85
2019-04-01 13:00:00 8.5 11 Este 23 Nordeste 0 -- -- 82
2019-04-01 12:00:00 8.4 9 Este 21 Este 0 -- -- 78
2019-04-01 11:00:00 6.2 11 Este 24 Este 0 -- -- 94
2019-04-01 10:00:00 6.1 10 Este 21 Este 0 -- -- 93
2019-04-01 09:00:00 4.9 9 Este 17 Este 0 -- -- 97
2019-04-01 08:00:00 4.1 5 Este 14 Este 0 -- -- 96
2019-04-01 07:00:00 4.3 9 Este 24 Este 0 -- -- 100
2019-04-01 06:00:00 4.5 12 Este 23 Este 0 -- -- 100
2019-04-01 05:00:00 4.5 12 Este 26 Nordeste 0 -- -- 99
2019-04-01 04:00:00 4.7 12 Este 27 Este 0 -- -- 99
2019-04-01 03:00:00 4.8 15 Este 30 Este 0 -- -- 98
2019-04-01 02:00:00 5 18 Este 32 Este 0 -- -- 96
2019-04-01 01:00:00 5.3 14 Este 32 Este 0 -- -- 93
2019-04-01 00:00:00 5.5 17 Este 36 Este 0 -- -- 93
2019-03-31 23:00:00 5.5 18 Este 32 Este 0 -- -- 93
2019-03-31 22:00:00 5.7 13 Este 33 Este 0 -- -- 91
2019-03-31 21:00:00 6.3 14 Este 32 Este 0 -- -- 89
2019-03-31 20:00:00 8 17 Este 30 Este 0 -- -- 79
2019-03-31 19:00:00 9.9 13 Este 25 Este 0 -- -- 70
2019-03-31 18:00:00 10.1 15 Este 26 Este 0 -- -- 68
2019-03-31 17:00:00 9.2 11 Este 22 Nordeste 0.2 -- -- 72
2019-03-31 16:00:00 8.4 6 Nordeste 24 Nordeste 0.2 -- -- 75
2019-03-31 15:00:00 11.1 10 Este 33 Este 0 -- -- 58
2019-03-31 14:00:00 10.9 16 Este 33 Nordeste 0 -- -- 60
2019-03-31 13:00:00 9.7 16 Este 27 Este 0 -- -- 67
2019-03-31 12:00:00 8.1 15 Este 25 Nordeste 0 -- -- 73
2019-03-31 11:00:00 7 14 Este 27 Este 0 -- -- 75
2019-03-31 10:00:00 5.9 14 Este 38 Este 0 -- -- 78
2019-03-31 09:00:00 5.6 18 Este 31 Nordeste 0 -- -- 79
2019-03-31 08:00:00 4.9 14 Este 30 Este 0 -- -- 83
2019-03-31 07:00:00 5 16 Este 33 Este 0 -- -- 81
2019-03-31 06:00:00 5.6 17 Este 32 Este 0 -- -- 73
2019-03-31 05:00:00 7.7 11 Este 20 Este 0 -- -- 55
2019-03-31 03:00:00 7.9 7 Este 17 Este 0 -- -- 47
2019-03-31 01:00:00 6.9 7 Este 14 Este 0 -- -- 51
2019-03-31 00:00:00 8 8 Este 17 Este 0 -- -- 50
2019-03-30 23:00:00 7.4 5 Este 9 Este 0 -- -- 52
2019-03-30 22:00:00 8.4 5 Nordeste 8 Nordeste 0 -- -- 48
2019-03-30 21:00:00 8.3 4 Nordeste 13 Este 0 -- -- 56
2019-03-30 20:00:00 9.3 8 Este 18 Este 0 -- -- 53
2019-03-30 19:00:00 10.1 11 Este 26 Este 0 -- -- 50
2019-03-30 18:00:00 11 13 Este 28 Este 0 -- -- 51
2019-03-30 17:00:00 11.6 13 Este 31 Este 0 -- -- 47
2019-03-30 16:00:00 12.2 16 Este 32 Este 0 -- -- 46
2019-03-30 15:00:00 11.8 17 Este 37 Este 0 -- -- 47
2019-03-30 14:00:00 11.4 16 Este 32 Este 0 -- -- 48
2019-03-30 13:00:00 10.9 16 Este 28 Este 0 -- -- 48
2019-03-30 12:00:00 11 14 Este 26 Este 0 -- -- 44
2019-03-30 11:00:00 9.8 14 Este 23 Este 0 -- -- 46
2019-03-30 10:00:00 9.1 12 Este 28 Este 0 -- -- 49
2019-03-30 09:00:00 4.9 14 Este 31 Este 0 -- -- 68
2019-03-30 08:00:00 3.5 16 Este 30 Este 0 -- -- 74
2019-03-30 07:00:00 2.8 17 Este 33 Este 0 -- -- 76
2019-03-30 06:00:00 4.7 14 Este 27 Este 0 -- -- 63
2019-03-30 05:00:00 4.2 14 Este 28 Este 0 -- -- 67
2019-03-30 04:00:00 4.6 13 Este 21 Este 0 -- -- 60
2019-03-30 03:00:00 5.5 10 Este 16 Este 0 -- -- 54
2019-03-30 02:00:00 6.5 8 Este 20 Este 0 -- -- 49
2019-03-30 01:00:00 7.1 10 Este 22 Este 0 -- -- 46
2019-03-30 00:00:00 7.2 11 Este 21 Este 0 -- -- 41
2019-03-29 23:00:00 6.5 8 Este 15 Nordeste 0 -- -- 42
2019-03-29 22:00:00 6.7 7 Este 14 Este 0 -- -- 41
2019-03-29 21:00:00 6.9 8 Este 13 Este 0 -- -- 41
2019-03-29 20:00:00 8.2 9 Este 20 Este 0 -- -- 37
2019-03-29 19:00:00 9.8 8 Este 28 Sudeste 0 -- -- 35
2019-03-29 18:00:00 10.9 13 Este 34 Este 0 -- -- 35
2019-03-29 17:00:00 11.8 15 Este 32 Este 0 -- -- 34
2019-03-29 16:00:00 12.2 16 Este 33 Este 0 -- -- 33
2019-03-29 15:00:00 11.9 15 Este 38 Este 0 -- -- 33
2019-03-29 14:00:00 10.9 22 Este 44 Este 0 -- -- 36
2019-03-29 13:00:00 10.5 25 Este 45 Nordeste 0 -- -- 35
2019-03-29 12:00:00 9.6 24 Este 49 Este 0 -- -- 36
2019-03-29 11:00:00 7.7 23 Este 43 Este 0 -- -- 45
2019-03-29 10:00:00 6.8 22 Este 55 Este 0 -- -- 45
2019-03-29 09:00:00 5 24 Este 41 Este 0 -- -- 46
2019-03-29 08:00:00 4.9 19 Este 35 Este 0 -- -- 44
2019-03-29 07:00:00 4.6 17 Este 35 Este 0 -- -- 44
2019-03-29 06:00:00 5.4 19 Este 38 Este 0 -- -- 41
2019-03-29 05:00:00 6.2 17 Este 38 Este 0 -- -- 38
2019-03-29 04:00:00 6.3 13 Este 28 Este 0 -- -- 38
2019-03-29 03:00:00 6.7 10 Este 26 Este 0 -- -- 36
2019-03-29 02:00:00 7.7 6 Este 26 Este 0 -- -- 32
2019-03-29 01:00:00 7.6 10 Este 22 Este 0 -- -- 33
2019-03-29 00:00:00 8.1 9 Este 21 Este 0 -- -- 31
2019-03-28 23:00:00 8 6 Este 17 Este 0 -- -- 32
2019-03-28 22:00:00 8.2 6 Este 16 Este 0 -- -- 32
2019-03-28 21:00:00 8.7 10 Este 20 Este 0 -- -- 31
2019-03-28 20:00:00 9.1 7 Este 20 Este 0 -- -- 34
2019-03-28 19:00:00 10.7 12 Este 28 Este 0 -- -- 31
2019-03-28 18:00:00 12.1 12 Este 27 Este 0 -- -- 30
2019-03-28 17:00:00 12.6 16 Este 30 Este 0 -- -- 28
2019-03-28 16:00:00 12.7 15 Este 34 Este 0 -- -- 28
2019-03-28 15:00:00 12.8 14 Este 31 Nordeste 0 -- -- 29
2019-03-28 14:00:00 12 15 Este 33 Este 0 -- -- 29
2019-03-28 13:00:00 11.4 17 Este 38 Este 0 -- -- 35
2019-03-28 12:00:00 11.2 16 Este 35 Nordeste 0 -- -- 35
2019-03-28 11:00:00 9.5 17 Este 36 Nordeste 0 -- -- 38
2019-03-28 10:00:00 8.2 19 Este 35 Este 0 -- -- 39
2019-03-28 09:00:00 6.8 17 Este 35 Este 0 -- -- 42
2019-03-28 08:00:00 5.7 11 Este 23 Este 0 -- -- 43
2019-03-28 07:00:00 5.3 13 Este 22 Nordeste 0 -- -- 41
2019-03-28 06:00:00 5.9 11 Este 23 Este 0 -- -- 40
2019-03-28 05:00:00 5.7 10 Este 28 Este 0 -- -- 41
2019-03-28 04:00:00 6.2 14 Este 27 Este 0 -- -- 46
2019-03-28 03:00:00 6.4 13 Este 23 Este 0 -- -- 48
2019-03-28 02:00:00 5.5 8 Este 16 Este 0 -- -- 52
2019-03-28 01:00:00 6.5 4 Este 11 Este 0 -- -- 46
2019-03-28 00:00:00 7 3 Este 10 Nordeste 0 -- -- 43
2019-03-27 23:00:00 7.5 4 Nordeste 12 Nordeste 0 -- -- 49
2019-03-27 22:00:00 7.6 6 Nordeste 12 Nordeste 0 -- -- 50
2019-03-27 21:00:00 7.7 6 Este 14 Este 0 -- -- 52
2019-03-27 20:00:00 8.3 7 Este 16 Este 0 -- -- 50
2019-03-27 19:00:00 10.1 7 Nordeste 19 Este 0 -- -- 46
2019-03-27 18:00:00 10.9 13 Este 26 Este 0 -- -- 44
2019-03-27 17:00:00 11.7 12 Este 27 Este 0 -- -- 41
2019-03-27 16:00:00 11.9 12 Este 23 Este 0 -- -- 40
2019-03-27 15:00:00 12.1 11 Este 27 Este 0 -- -- 41
2019-03-27 14:00:00 11.2 12 Este 32 Nordeste 0 -- -- 44
2019-03-27 13:00:00 9.9 16 Este 33 Este 0 -- -- 50
2019-03-27 12:00:00 8.6 19 Este 35 Este 0 -- -- 54
2019-03-27 11:00:00 7.5 20 Este 43 Este 0 -- -- 53
2019-03-27 10:00:00 5.9 23 Este 42 Este 0 -- -- 57
2019-03-27 09:00:00 4.5 21 Este 45 Este 0 -- -- 59
2019-03-27 08:00:00 2.9 26 Este 47 Nordeste 0 -- -- 66
2019-03-27 07:00:00 2.2 22 Este 41 Este 0 -- -- 73
2019-03-27 06:00:00 4 23 Este 41 Este 0 -- -- 60
2019-03-27 05:00:00 5.2 21 Nordeste 48 Este 0 -- -- 57
2019-03-27 04:00:00 6.7 25 Este 49 Este 0 -- -- 49
2019-03-27 03:00:00 7.7 28 Este 51 Este 0 -- -- 42
2019-03-27 02:00:00 8.1 23 Este 61 Este 0 -- -- 40
2019-03-27 01:00:00 9.2 30 Este 55 Nordeste 0 -- -- 34
2019-03-27 00:00:00 10.1 23 Este 53 Nordeste 0 -- -- 28
2019-03-26 23:00:00 10.8 29 Este 55 Este 0 -- -- 26
2019-03-26 22:00:00 12 17 Nordeste 34 Nordeste 0 -- -- 29
2019-03-26 21:00:00 11.9 17 Nordeste 36 Este 0 -- -- 30
2019-03-26 20:00:00 11.7 14 Nordeste 37 Este 0 -- -- 34
2019-03-26 19:00:00 12.7 17 Este 33 Este 0 -- -- 33
2019-03-26 18:00:00 13.9 16 Este 32 Este 0 -- -- 31
2019-03-26 17:00:00 14.7 17 Este 41 Este 0 -- -- 31
2019-03-26 16:00:00 14.7 18 Este 43 Este 0 -- -- 33
2019-03-26 15:00:00 14.3 21 Este 46 Este 0 -- -- 36
2019-03-26 14:00:00 13.1 26 Este 46 Este 0 -- -- 37
2019-03-26 13:00:00 11.9 21 Este 41 Este 0 -- -- 42
2019-03-26 12:00:00 11.2 18 Este 37 Este 0 -- -- 39
2019-03-26 11:00:00 9.7 15 Este 30 Este 0 -- -- 40
2019-03-26 10:00:00 8.1 14 Este 32 Este 0 -- -- 43
2019-03-26 09:00:00 7 19 Este 37 Nordeste 0 -- -- 47
2019-03-26 08:00:00 5.2 16 Este 30 Este 0 -- -- 54
2019-03-26 07:00:00 5.5 10 Este 22 Este 0 -- -- 52
2019-03-26 06:00:00 8.2 6 Nordeste 12 Nordeste 0 -- -- 38
2019-03-26 05:00:00 6.7 5 Nordeste 16 Nordeste 0 -- -- 45
2019-03-26 04:00:00 7.2 9 Este 19 Nordeste 0 -- -- 46
2019-03-26 03:00:00 6.7 7 Este 17 Este 0 -- -- 52
2019-03-26 02:00:00 7.9 12 Este 28 Este 0 -- -- 48
2019-03-26 01:00:00 9.5 15 Este 28 Este 0 -- -- 42
2019-03-26 00:00:00 9.7 6 Este 14 Este 0 -- -- 42
2019-03-25 23:00:00 10 4 Este 15 Este 0 -- -- 37
2019-03-25 22:00:00 9.6 4 Este 8 Nordeste 0 -- -- 37
2019-03-25 21:00:00 10 0 Calma 19 Norte 0 -- -- 40
2019-03-25 20:00:00 10.8 11 Norte 27 Nordeste 0 -- -- 36
2019-03-25 19:00:00 13.4 8 Norte 17 Noroeste 0 -- -- 38
2019-03-25 18:00:00 14.5 7 Este 19 Este 0 -- -- 37
2019-03-25 17:00:00 15.4 12 Nordeste 36 Noroeste 0 -- -- 35
2019-03-25 16:00:00 16.8 5 Oeste 18 Sudoeste 0 -- -- 34
2019-03-25 15:00:00 15.4 6 Nordeste 15 Este 0 -- -- 36
2019-03-25 14:00:00 15.4 8 Nordeste 21 Nordeste 0 -- -- 32
2019-03-25 13:00:00 14.6 9 Este 21 Este 0 -- -- 33
2019-03-25 12:00:00 13.4 11 Este 23 Este 0 -- -- 36
2019-03-25 11:00:00 12.4 13 Este 25 Este 0 -- -- 38
2019-03-25 10:00:00 11.3 14 Este 28 Este 0 -- -- 43
2019-03-25 09:00:00 9.8 13 Este 23 Este 0 -- -- 46
2019-03-25 08:00:00 7.5 9 Este 18 Nordeste 0 -- -- 56
2019-03-25 07:00:00 7.5 7 Este 21 Este 0 -- -- 54
2019-03-25 06:00:00 8.2 8 Nordeste 16 Este 0 -- -- 50
2019-03-25 05:00:00 7.3 8 Este 18 Este 0 -- -- 54
2019-03-25 04:00:00 7.4 7 Este 14 Este 0 -- -- 53
2019-03-25 03:00:00 8.2 8 Este 14 Este 0 -- -- 50
2019-03-25 02:00:00 8.6 6 Este 17 Este 0 -- -- 49
2019-03-25 01:00:00 9.2 8 Este 19 Este 0 -- -- 47
2019-03-25 00:00:00 9.5 8 Este 19 Este 0 -- -- 45